Lilongwe, Malawi
Current Conditions -  °F | °C
As of 12:00 AM on Friday 28 Nov 2014 (Local Time) from FWKI Reporting Station
Clear Clear  
Wind Chill: 72°   Ceiling: Unl
Heat Index: 72°   Visibility: 6mi
Dew Point: 55°   Wind: 8mph
Humidity: 57%   Direction: 110°ESE
Pressure: 30"   Gusts: NA
Location:  13.97°S, 33.8°E
Report Text: FWKI 272200Z 11007KT CAVOK 22/13 Q1016 NOSIG
Loading
Personal Weather Stations






























Interactive Weather Map New forecast layout! Learn more

10-Day Weather Forecast

Advertisements
Track Severe Weather on mobile